Time;durP1;ratioP1;P1;durP2;ratioP2;P2;SDS_P1;SDS_P2;PMS_P1;PMS_P2;Temp;Humidity;BMP_temperature;BMP_pressure;BME280_temperature;BME280_humidity;BME280_pressure;Samples;Min_cycle;Max_cycle;Signal;HPM_P1;HPM_P2
2023/01/02 00:00:13;;;;;;;9.17;5.00;;;18.00;34.60;;;;;;5113423;28;20167;-51
2023/01/02 00:02:39;;;;;;;8.70;5.15;;;18.00;34.70;;;;;;5113357;28;20163;-52
2023/01/02 00:05:04;;;;;;;11.37;5.50;;;17.90;34.70;;;;;;5113093;28;20239;-52
2023/01/02 00:07:30;;;;;;;8.87;6.30;;;17.90;34.90;;;;;;5113199;28;20190;-52
2023/01/02 00:09:56;;;;;;;8.80;5.27;;;17.80;34.80;;;;;;5113340;28;20722;-52
2023/01/02 00:12:22;;;;;;;5.30;4.30;;;17.80;35.00;;;;;;5113285;28;20179;-52
2023/01/02 00:14:47;;;;;;;7.10;4.97;;;17.70;35.00;;;;;;5113004;28;20168;-51
2023/01/02 00:17:13;;;;;;;12.13;5.50;;;17.70;35.10;;;;;;5113161;28;20195;-52
2023/01/02 00:19:39;;;;;;;14.07;6.20;;;17.70;35.30;;;;;;5113025;28;20182;-52
2023/01/02 00:22:05;;;;;;;9.97;5.33;;;17.60;35.30;;;;;;5113016;28;20476;-51
2023/01/02 00:24:30;;;;;;;6.07;4.20;;;17.60;35.40;;;;;;5112861;28;20171;-52
2023/01/02 00:26:56;;;;;;;7.67;6.47;;;17.60;35.40;;;;;;5112900;28;20183;-52
2023/01/02 00:29:21;;;;;;;8.67;5.00;;;17.60;35.30;;;;;;5112982;28;20175;-52
2023/01/02 00:31:47;;;;;;;8.70;5.90;;;17.70;35.30;;;;;;5112895;28;20163;-52
2023/01/02 00:34:13;;;;;;;6.97;5.30;;;17.70;35.40;;;;;;5112618;28;20170;-51
2023/01/02 00:36:39;;;;;;;6.90;4.90;;;17.70;35.40;;;;;;5112472;28;20238;-52
2023/01/02 00:39:04;;;;;;;7.63;5.60;;;17.70;35.60;;;;;;5113011;28;20480;-52
2023/01/02 00:41:30;;;;;;;7.97;5.80;;;17.60;35.40;;;;;;5112791;28;20167;-52
2023/01/02 00:43:56;;;;;;;10.00;5.80;;;17.60;35.40;;;;;;5113139;28;20159;-52
2023/01/02 00:46:22;;;;;;;10.63;6.13;;;17.60;35.60;;;;;;5112431;28;20167;-52
2023/01/02 00:48:47;;;;;;;9.60;5.73;;;17.60;35.80;;;;;;5112573;28;20187;-51
2023/01/02 00:51:13;;;;;;;8.83;5.30;;;17.60;35.60;;;;;;5112598;28;20761;-52
2023/01/02 00:53:39;;;;;;;12.13;6.30;;;17.60;35.80;;;;;;5112803;28;20449;-52
2023/01/02 00:56:05;;;;;;;6.77;5.27;;;17.60;35.70;;;;;;5112613;28;20225;-52
2023/01/02 00:58:31;;;;;;;14.55;5.50;;;17.60;35.80;;;;;;5112448;28;20191;-52
2023/01/02 01:00:57;;;;;;;8.10;5.87;;;17.70;35.80;;;;;;5112147;28;20194;-52
2023/01/02 01:03:22;;;;;;;10.47;5.93;;;17.70;35.70;;;;;;5112474;28;20163;-52
2023/01/02 01:05:48;;;;;;;11.47;6.50;;;17.70;35.70;;;;;;5112269;28;20189;-52
2023/01/02 01:08:14;;;;;;;7.93;5.30;;;17.70;35.60;;;;;;5112434;28;20613;-52
2023/01/02 01:10:40;;;;;;;6.60;4.80;;;17.70;35.50;;;;;;5112552;28;20177;-51
2023/01/02 01:13:05;;;;;;;7.60;5.27;;;17.80;35.40;;;;;;5112504;28;20179;-52
2023/01/02 01:15:34;;;;;;;10.05;6.10;;;17.80;35.30;;;;;;5112195;28;20175;-52
2023/01/02 01:18:00;;;;;;;11.63;5.85;;;17.90;35.20;;;;;;5112183;28;20249;-51
2023/01/02 01:20:26;;;;;;;8.47;5.67;;;17.90;35.10;;;;;;5112520;28;20175;-51
2023/01/02 01:22:51;;;;;;;9.60;5.77;;;17.90;35.10;;;;;;5112451;28;20172;-52
2023/01/02 01:25:17;;;;;;;7.57;6.50;;;18.00;34.90;;;;;;5112097;28;20584;-52
2023/01/02 01:27:43;;;;;;;9.73;5.30;;;18.00;34.80;;;;;;5112196;28;20195;-52
2023/01/02 01:30:09;;;;;;;9.17;5.80;;;18.00;34.50;;;;;;5112207;28;20163;-51
2023/01/02 01:32:35;;;;;;;8.63;5.97;;;18.10;34.60;;;;;;5112127;28;20180;-52
2023/01/02 01:35:01;;;;;;;10.47;6.00;;;18.10;34.60;;;;;;5112142;28;20186;-52
2023/01/02 01:37:27;;;;;;;8.30;5.33;;;18.10;34.50;;;;;;5112066;28;20484;-51
2023/01/02 01:39:52;;;;;;;9.77;6.47;;;18.20;34.50;;;;;;5112102;28;20249;-52
2023/01/02 01:42:18;;;;;;;7.13;5.10;;;18.20;34.30;;;;;;5112190;28;20171;-52
2023/01/02 01:44:50;;;;;;;10.60;4.80;;;18.30;34.30;;;;;;5111937;28;20175;-52
2023/01/02 01:47:39;;;;;;;9.02;6.05;;;18.30;34.30;;;;;;5112247;28;20247;-52
2023/01/02 01:50:10;;;;;;;10.43;5.60;;;18.30;34.30;;;;;;5112066;28;20179;-52
2023/01/02 01:52:48;;;;;;;7.13;5.10;;;18.40;34.00;;;;;;5112138;28;20193;-52
2023/01/02 01:55:19;;;;;;;7.63;5.18;;;18.40;34.10;;;;;;5111791;28;20548;-52
2023/01/02 01:57:56;;;;;;;8.98;5.50;;;18.40;34.00;;;;;;5111877;28;20199;-51
2023/01/02 02:00:22;;;;;;;6.55;4.75;;;18.40;34.00;;;;;;5112134;28;20178;-52
2023/01/02 02:02:51;;;;;;;8.93;5.22;;;18.40;33.80;;;;;;5112079;28;20202;-52
2023/01/02 02:05:22;;;;;;;8.38;6.20;;;18.50;33.90;;;;;;5111768;28;20171;-52
2023/01/02 02:08:05;;;;;;;9.70;5.72;;;18.50;33.90;;;;;;5111848;28;20191;-52
2023/01/02 02:10:31;;;;;;;7.43;5.50;;;18.50;33.70;;;;;;5112112;28;20179;-51
2023/01/02 02:12:57;;;;;;;7.77;4.97;;;18.40;33.70;;;;;;5114913;28;20674;-52
2023/01/02 02:15:34;;;;;;;6.57;5.23;;;18.50;33.60;;;;;;5115411;28;20671;-52
2023/01/02 02:18:09;;;;;;;6.80;5.00;;;18.50;33.30;;;;;;5115281;28;20198;-52
2023/01/02 02:20:38;;;;;;;8.75;4.82;;;18.40;33.50;;;;;;5115445;28;20159;-52
2023/01/02 02:23:12;;;;;;;9.40;5.00;;;18.40;33.50;;;;;;5115487;28;20175;-52
2023/01/02 02:25:54;;;;;;;9.25;6.28;;;18.40;33.60;;;;;;5115150;28;20166;-52
2023/01/02 02:28:44;;;;;;;5.80;5.20;;;18.40;33.60;;;;;;5115179;28;20198;-51
2023/01/02 02:31:22;;;;;;;7.15;5.60;;;18.40;33.60;;;;;;5115251;28;20160;-52
2023/01/02 02:34:05;;;;;;;7.40;5.45;;;18.40;33.60;;;;;;5115221;28;20639;-52
2023/01/02 02:36:49;;;;;;;8.25;6.22;;;18.40;33.50;;;;;;5114859;28;20198;-52
2023/01/02 02:39:43;;;;;;;6.32;4.85;;;18.40;33.60;;;;;;5115080;28;20174;-52
2023/01/02 02:42:24;;;;;;;10.65;5.80;;;18.40;33.50;;;;;;5115052;28;20166;-52
2023/01/02 02:44:55;;;;;;;10.32;6.03;;;18.40;33.50;;;;;;5114813;28;20213;-52
2023/01/02 02:47:40;;;;;;;7.50;5.13;;;18.40;33.40;;;;;;5114671;28;20195;-52
2023/01/02 02:50:12;;;;;;;7.70;5.25;;;18.40;33.40;;;;;;5114882;28;20220;-52
2023/01/02 02:52:46;;;;;;;9.10;5.35;;;18.40;33.50;;;;;;5114962;28;20263;-51
2023/01/02 02:55:16;;;;;;;8.10;5.15;;;18.40;33.60;;;;;;5114661;28;20190;-52
2023/01/02 02:57:44;;;;;;;9.15;5.57;;;18.30;33.70;;;;;;5114540;28;20333;-52
2023/01/02 03:00:14;;;;;;;7.07;5.40;;;18.30;33.70;;;;;;5114552;28;20175;-52
2023/01/02 03:02:39;;;;;;;7.00;4.97;;;18.20;33.70;;;;;;5114542;28;20168;-51
2023/01/02 03:05:10;;;;;;;7.70;4.70;;;18.20;33.90;;;;;;5114366;28;20266;-52
2023/01/02 03:07:52;;;;;;;5.13;3.95;;;18.20;33.90;;;;;;5114918;28;20199;-52
2023/01/02 03:10:33;;;;;;;10.60;5.30;;;18.20;34.00;;;;;;5114350;28;20197;-52
2023/01/02 03:13:02;;;;;;;9.60;4.90;;;18.10;34.20;;;;;;5098125;28;20646;-51
2023/01/02 03:15:34;;;;;;;8.50;5.35;;;18.10;34.10;;;;;;5114145;28;20176;-52
2023/01/02 03:18:32;;;;;;;6.85;5.20;;;18.10;34.10;;;;;;5114055;28;20272;-52
2023/01/02 03:21:40;;;;;;;9.05;5.55;;;18.10;33.90;;;;;;5080871;28;20600;-52
2023/01/02 03:24:10;;;;;;;11.50;5.05;;;18.10;34.10;;;;;;5102739;28;20171;-52
2023/01/02 03:26:41;;;;;;;12.05;6.15;;;18.00;34.20;;;;;;5113963;28;20183;-51
2023/01/02 03:29:12;;;;;;;6.63;4.88;;;18.00;34.30;;;;;;5113968;28;20175;-51
2023/01/02 03:31:40;;;;;;;18.85;6.45;;;17.90;34.40;;;;;;5114207;28;20179;-51
2023/01/02 03:34:20;;;;;;;9.13;5.65;;;17.90;34.30;;;;;;5113951;28;20171;-52
2023/01/02 03:36:51;;;;;;;6.63;4.78;;;17.90;34.30;;;;;;5113732;28;20221;-52
2023/01/02 03:39:20;;;;;;;7.05;6.05;;;17.90;34.40;;;;;;5113829;28;20167;-51
2023/01/02 03:41:56;;;;;;;8.88;6.55;;;17.90;34.30;;;;;;5113746;28;20175;-52
2023/01/02 03:44:27;;;;;;;9.25;6.13;;;17.80;34.20;;;;;;5113677;28;20269;-51
2023/01/02 03:47:21;;;;;;;7.50;5.97;;;17.90;34.20;;;;;;5113623;28;20542;-52
2023/01/02 03:49:52;;;;;;;9.05;5.60;;;17.90;34.20;;;;;;5089352;28;20189;-52
2023/01/02 03:52:18;;;;;;;6.78;5.60;;;17.90;34.30;;;;;;5113668;28;20656;-51
2023/01/02 03:54:44;;;;;;;7.20;5.70;;;17.90;34.20;;;;;;5113356;28;20176;-51
2023/01/02 03:57:17;;;;;;;7.33;6.53;;;17.90;34.10;;;;;;5113360;28;20213;-51
2023/01/02 04:00:27;;;;;;;7.57;5.13;;;17.90;34.00;;;;;;5113922;28;20412;-52
2023/01/02 04:03:04;;;;;;;9.95;5.97;;;18.00;33.90;;;;;;5030504;28;20174;-51
2023/01/02 04:05:48;;;;;;;8.35;5.20;;;18.00;33.90;;;;;;5030484;28;20170;-52
2023/01/02 04:08:27;;;;;;;9.57;5.72;;;17.90;33.80;;;;;;5030425;28;20232;-52
2023/01/02 04:10:56;;;;;;;10.73;6.22;;;17.90;33.70;;;;;;5030444;28;20253;-52
2023/01/02 04:13:47;;;;;;;6.43;4.85;;;17.90;33.80;;;;;;5030413;28;20174;-51
2023/01/02 04:16:19;;;;;;;8.35;5.85;;;17.90;34.40;;;;;;5030103;28;20204;-51
2023/01/02 04:18:53;;;;;;;6.57;4.90;;;17.90;33.90;;;;;;5030121;28;20288;-52
2023/01/02 04:21:24;;;;;;;16.23;6.25;;;17.90;33.90;;;;;;5030835;28;20185;-52
2023/01/02 04:24:13;;;;;;;7.53;5.38;;;17.90;33.70;;;;;;5030268;28;20643;-52
2023/01/02 04:26:48;;;;;;;7.93;5.72;;;17.90;33.70;;;;;;5029631;28;20289;-52
2023/01/02 04:29:14;;;;;;;9.13;5.85;;;17.90;33.70;;;;;;5030156;28;20600;-52
2023/01/02 04:31:52;;;;;;;9.20;5.97;;;17.90;33.60;;;;;;5029939;28;20178;-52
2023/01/02 04:34:21;;;;;;;10.80;6.20;;;18.00;33.40;;;;;;5093322;28;20849;-51
2023/01/02 04:36:47;;;;;;;8.32;5.75;;;17.90;33.60;;;;;;5112808;28;20367;-51
2023/01/02 04:39:13;;;;;;;9.00;6.22;;;17.90;33.70;;;;;;5112806;28;20179;-52
2023/01/02 04:41:40;;;;;;;9.93;6.37;;;17.90;33.70;;;;;;5112768;28;20167;-52
2023/01/02 04:44:05;;;;;;;7.57;6.15;;;17.80;33.60;;;;;;5112573;28;20245;-52
2023/01/02 04:46:31;;;;;;;6.33;5.00;;;17.90;33.70;;;;;;5112435;28;20744;-52
2023/01/02 04:48:57;;;;;;;9.80;6.43;;;17.80;33.70;;;;;;5112691;28;20167;-52
2023/01/02 04:51:23;;;;;;;8.67;5.40;;;17.80;33.60;;;;;;5112608;28;20173;-52
2023/01/02 04:53:52;;;;;;;6.90;4.80;;;17.80;33.70;;;;;;5112668;28;20178;-51
2023/01/02 04:56:18;;;;;;;9.25;5.85;;;17.70;33.60;;;;;;5112317;28;20515;-52
2023/01/02 04:58:45;;;;;;;7.15;4.30;;;17.70;33.70;;;;;;5112843;28;20198;-52
2023/01/02 05:01:14;;;;;;;7.03;5.65;;;17.70;33.70;;;;;;5112605;28;20308;-51
2023/01/02 05:03:40;;;;;;;8.02;6.20;;;17.70;33.60;;;;;;5112454;28;20661;-52
2023/01/02 05:06:07;;;;;;;8.68;5.35;;;17.70;33.70;;;;;;5112289;28;20167;-52
2023/01/02 05:08:33;;;;;;;8.32;6.38;;;17.70;33.60;;;;;;5112775;28;20658;-51
2023/01/02 05:11:08;;;;;;;9.45;5.97;;;17.70;33.60;;;;;;5112347;28;20535;-51
2023/01/02 05:13:33;;;;;;;12.65;5.28;;;17.70;33.50;;;;;;5112583;28;20167;-52
2023/01/02 05:15:59;;;;;;;10.33;6.87;;;17.70;33.50;;;;;;5112239;28;20186;-51
2023/01/02 05:18:28;;;;;;;11.90;9.80;;;17.70;33.60;;;;;;5112163;28;20448;-51
2023/01/02 05:21:03;;;;;;;10.50;7.63;;;17.70;33.50;;;;;;5112367;28;20409;-52
2023/01/02 05:23:47;;;;;;;10.18;7.28;;;17.70;33.40;;;;;;5112379;28;20178;-52
2023/01/02 05:26:14;;;;;;;9.27;7.63;;;17.70;33.50;;;;;;5112304;28;20182;-52
2023/01/02 05:28:40;;;;;;;10.20;6.70;;;17.70;33.50;;;;;;5112295;28;20320;-52
2023/01/02 05:31:06;;;;;;;13.13;7.70;;;17.70;33.50;;;;;;5112240;28;20191;-52
2023/01/02 05:33:32;;;;;;;11.53;7.70;;;17.70;33.40;;;;;;5112043;28;20816;-52
2023/01/02 05:35:57;;;;;;;6.80;6.10;;;17.60;33.40;;;;;;5111880;28;20167;-52
2023/01/02 05:38:23;;;;;;;6.93;5.60;;;17.60;33.50;;;;;;5111993;28;20196;-51
2023/01/02 05:40:49;;;;;;;11.00;6.17;;;17.50;33.60;;;;;;5112356;28;20167;-52
2023/01/02 05:43:14;;;;;;;8.87;6.57;;;17.50;33.60;;;;;;5112321;28;20194;-52
2023/01/02 05:45:40;;;;;;;9.47;6.20;;;17.50;33.70;;;;;;5113121;28;20174;-51
2023/01/02 05:48:06;;;;;;;8.07;6.40;;;17.40;33.50;;;;;;5116441;28;20187;-52
2023/01/02 05:50:31;;;;;;;11.27;6.60;;;17.50;33.60;;;;;;5115928;28;20175;-52
2023/01/02 05:52:57;;;;;;;13.10;6.60;;;17.50;33.70;;;;;;5115899;28;20177;-52
2023/01/02 05:55:23;;;;;;;16.93;9.80;;;17.50;33.70;;;;;;5115844;28;20171;-52
2023/01/02 05:57:53;;;;;;;7.77;5.60;;;17.50;33.70;;;;;;5115809;28;20203;-52
2023/01/02 06:00:19;;;;;;;8.93;6.43;;;17.40;33.80;;;;;;5115981;28;20182;-52
2023/01/02 06:02:45;;;;;;;7.97;6.53;;;17.40;33.80;;;;;;5115737;28;20534;-52
2023/01/02 06:05:10;;;;;;;6.90;5.97;;;17.40;33.80;;;;;;5115450;28;20257;-52
2023/01/02 06:07:36;;;;;;;7.70;5.90;;;17.40;33.90;;;;;;5115526;28;20274;-52
2023/01/02 06:10:02;;;;;;;8.33;6.53;;;17.30;34.00;;;;;;5115585;28;20180;-51
2023/01/02 06:12:28;;;;;;;8.87;6.10;;;17.30;33.90;;;;;;5115532;28;20185;-52
2023/01/02 06:14:53;;;;;;;9.27;6.97;;;17.40;33.90;;;;;;5115478;28;20183;-52
2023/01/02 06:17:20;;;;;;;7.93;6.30;;;17.40;33.90;;;;;;5115357;28;20555;-52
2023/01/02 06:19:45;;;;;;;13.80;7.68;;;17.30;33.90;;;;;;5115365;28;20213;-52
2023/01/02 06:22:11;;;;;;;10.67;6.73;;;17.30;34.00;;;;;;5115548;28;20210;-52
2023/01/02 06:24:37;;;;;;;11.00;7.20;;;17.30;34.00;;;;;;5115281;28;20262;-52
2023/01/02 06:27:03;;;;;;;11.20;6.63;;;17.30;33.90;;;;;;5115211;28;20195;-52
2023/01/02 06:29:28;;;;;;;8.87;6.37;;;17.20;34.50;;;;;;5115293;28;20515;-51
2023/01/02 06:31:54;;;;;;;13.10;8.10;;;17.20;33.90;;;;;;5115254;28;20174;-52
2023/01/02 06:34:20;;;;;;;10.50;7.77;;;17.20;33.90;;;;;;5114941;28;20635;-52
2023/01/02 06:36:45;;;;;;;13.87;6.83;;;17.20;34.00;;;;;;5114803;28;20245;-52
2023/01/02 06:39:11;;;;;;;11.63;7.80;;;17.10;34.10;;;;;;5115010;28;20604;-52
2023/01/02 06:41:37;;;;;;;9.63;8.63;;;17.10;34.30;;;;;;5114962;28;20167;-51
2023/01/02 06:44:02;;;;;;;12.50;8.27;;;17.00;34.20;;;;;;5114871;28;20178;-52
2023/01/02 06:46:28;;;;;;;12.30;7.87;;;17.00;34.30;;;;;;5114654;28;20195;-52
2023/01/02 06:48:54;;;;;;;14.93;8.53;;;16.90;34.40;;;;;;5114856;28;20224;-52
2023/01/02 06:51:21;;;;;;;11.67;7.87;;;16.80;34.50;;;;;;5115180;28;20217;-52
2023/01/02 06:53:47;;;;;;;11.32;9.02;;;16.70;34.70;;;;;;5114711;28;20265;-52
2023/01/02 06:56:16;;;;;;;11.83;8.10;;;16.70;34.90;;;;;;5114546;28;20281;-52
2023/01/02 06:58:42;;;;;;;11.73;7.80;;;16.60;34.90;;;;;;5113809;28;20473;-52
2023/01/02 07:01:10;;;;;;;11.45;7.60;;;16.60;35.00;;;;;;5114663;28;20175;-52
2023/01/02 07:03:36;;;;;;;9.63;7.00;;;16.60;35.10;;;;;;5114523;28;20160;-52
2023/01/02 07:06:04;;;;;;;10.07;7.90;;;16.50;35.30;;;;;;5114354;28;20631;-52
2023/01/02 07:08:30;;;;;;;12.70;8.70;;;16.50;35.40;;;;;;5114392;28;20184;-52
2023/01/02 07:11:25;;;;;;;12.32;10.30;;;16.50;35.40;;;;;;5114313;28;20580;-52
2023/01/02 07:13:53;;;;;;;15.30;8.95;;;16.50;35.50;;;;;;5113745;28;20248;-52
2023/01/02 07:16:21;;;;;;;12.60;10.30;;;16.30;35.70;;;;;;5114023;28;20211;-52
2023/01/02 07:18:47;;;;;;;15.50;9.90;;;16.30;36.00;;;;;;5114077;28;20694;-52
2023/01/02 07:21:15;;;;;;;16.70;10.05;;;16.20;35.90;;;;;;5114398;28;20220;-52
2023/01/02 07:23:41;;;;;;;14.07;9.30;;;16.10;36.10;;;;;;5114257;28;20175;-52
2023/01/02 07:26:07;;;;;;;16.67;10.68;;;16.00;36.20;;;;;;5113855;28;20546;-52
2023/01/02 07:28:34;;;;;;;15.50;9.10;;;16.00;36.50;;;;;;5113903;28;20191;-52
2023/01/02 07:31:02;;;;;;;12.35;9.50;;;16.00;36.50;;;;;;5114182;28;20252;-52
2023/01/02 07:33:29;;;;;;;13.10;10.77;;;15.90;36.60;;;;;;5113959;28;20209;-51
2023/01/02 07:35:59;;;;;;;10.32;8.80;;;15.90;36.70;;;;;;5113663;28;20246;-52
2023/01/02 07:38:25;;;;;;;14.20;11.10;;;15.90;36.80;;;;;;5113899;28;20214;-52
2023/01/02 07:40:51;;;;;;;13.35;11.23;;;15.80;37.00;;;;;;5113815;28;20522;-52
2023/01/02 07:43:17;;;;;;;13.60;9.70;;;15.80;37.00;;;;;;5113721;28;20168;-52
2023/01/02 07:45:43;;;;;;;13.23;9.48;;;15.70;37.10;;;;;;5113523;28;20206;-52
2023/01/02 07:48:08;;;;;;;15.00;9.60;;;15.70;37.20;;;;;;5113844;28;20227;-51
2023/01/02 07:50:34;;;;;;;16.37;11.80;;;15.70;37.20;;;;;;5095381;28;20179;-52
2023/01/02 07:53:00;;;;;;;12.97;8.80;;;15.70;37.20;;;;;;5113632;28;20198;-52
2023/01/02 07:55:25;;;;;;;12.73;9.50;;;15.60;37.10;;;;;;5113321;28;20171;-52
2023/01/02 07:57:51;;;;;;;14.27;10.63;;;15.70;37.30;;;;;;5113343;28;20294;-52
2023/01/02 08:00:18;;;;;;;17.00;11.17;;;15.60;37.50;;;;;;5113395;28;20211;-52
2023/01/02 08:02:44;;;;;;;12.93;10.52;;;15.60;37.50;;;;;;5113373;28;20178;-52
2023/01/02 08:05:10;;;;;;;15.73;10.40;;;15.50;37.60;;;;;;5113280;28;20179;-52
2023/01/02 08:07:36;;;;;;;12.53;8.97;;;15.50;37.70;;;;;;5113238;28;20195;-52
2023/01/02 08:10:02;;;;;;;13.25;9.25;;;15.50;37.70;;;;;;5113248;28;20436;-52
2023/01/02 08:12:28;;;;;;;11.43;9.57;;;15.50;37.60;;;;;;5113195;28;20333;-52
2023/01/02 08:14:54;;;;;;;14.07;9.80;;;15.50;37.60;;;;;;5113281;28;20259;-52
2023/01/02 08:17:19;;;;;;;11.80;9.90;;;15.40;37.80;;;;;;5112799;28;20206;-52
2023/01/02 08:19:45;;;;;;;14.80;12.50;;;15.30;37.90;;;;;;5113198;28;20167;-51
2023/01/02 08:22:11;;;;;;;13.30;10.40;;;15.40;37.90;;;;;;5112979;28;20631;-51
2023/01/02 08:24:36;;;;;;;13.23;9.93;;;15.30;38.00;;;;;;5112741;28;20175;-51
2023/01/02 08:27:02;;;;;;;13.00;8.70;;;15.30;37.90;;;;;;5112853;28;20218;-52
2023/01/02 08:29:28;;;;;;;13.50;8.80;;;15.30;38.00;;;;;;5113152;28;20228;-52
2023/01/02 08:31:56;;;;;;;11.07;9.63;;;15.40;37.90;;;;;;5113044;28;20564;-52
2023/01/02 08:34:22;;;;;;;14.73;9.65;;;15.40;37.80;;;;;;5112804;28;20240;-51
2023/01/02 08:36:47;;;;;;;13.00;9.27;;;15.50;37.70;;;;;;5112756;28;20620;-52
2023/01/02 08:39:15;;;;;;;12.10;9.30;;;15.50;37.70;;;;;;5112773;28;20201;-52
2023/01/02 08:41:41;;;;;;;11.00;9.07;;;15.50;37.60;;;;;;5112709;28;20167;-52
2023/01/02 08:44:07;;;;;;;12.10;7.77;;;15.60;37.50;;;;;;5112693;28;20179;-52
2023/01/02 08:46:34;;;;;;;11.45;8.13;;;15.60;37.40;;;;;;5112410;28;20409;-52
2023/01/02 08:49:00;;;;;;;15.15;10.48;;;15.70;37.40;;;;;;5112767;28;20262;-51
2023/01/02 08:51:27;;;;;;;14.25;9.80;;;15.70;37.30;;;;;;5112601;28;20219;-51
2023/01/02 08:53:53;;;;;;;13.63;9.05;;;15.70;37.30;;;;;;5112448;28;20221;-52
2023/01/02 08:56:24;;;;;;;14.23;9.52;;;15.70;37.30;;;;;;5112527;28;20234;-52
2023/01/02 08:58:57;;;;;;;12.77;9.23;;;15.70;37.20;;;;;;5112491;28;20174;-52
2023/01/02 09:01:24;;;;;;;13.85;8.40;;;15.70;37.20;;;;;;5112607;28;20175;-51
2023/01/02 09:03:51;;;;;;;11.35;8.82;;;15.70;37.30;;;;;;5112563;28;20240;-52
2023/01/02 09:06:17;;;;;;;13.85;9.75;;;15.70;37.30;;;;;;5112328;28;20183;-51
2023/01/02 09:08:43;;;;;;;13.95;9.75;;;15.70;37.20;;;;;;5112154;28;20637;-52
2023/01/02 09:11:20;;;;;;;16.90;9.77;;;15.70;37.30;;;;;;5112652;28;20213;-52
2023/01/02 09:13:46;;;;;;;11.75;8.95;;;15.70;37.30;;;;;;5112445;28;20758;-52
2023/01/02 09:16:12;;;;;;;11.70;8.67;;;15.70;37.40;;;;;;5112213;28;20210;-51
2023/01/02 09:18:39;;;;;;;15.13;8.50;;;15.70;37.30;;;;;;5112201;28;20940;-52
2023/01/02 09:21:05;;;;;;;16.90;8.30;;;15.70;37.40;;;;;;5114278;28;20563;-51
2023/01/02 09:23:31;;;;;;;14.43;8.57;;;15.70;37.20;;;;;;5116707;28;20171;-52
2023/01/02 09:26:03;;;;;;;21.70;7.95;;;15.80;37.30;;;;;;5116271;28;20168;-52
2023/01/02 09:28:31;;;;;;;9.52;7.63;;;15.80;37.30;;;;;;5116318;28;20195;-51
2023/01/02 09:30:57;;;;;;;8.85;6.93;;;15.80;37.20;;;;;;5116391;28;20167;-52
2023/01/02 09:33:23;;;;;;;14.70;9.37;;;15.90;37.10;;;;;;5116321;28;20288;-52
2023/01/02 09:35:49;;;;;;;14.65;9.05;;;15.90;37.00;;;;;;5115982;28;20266;-52
2023/01/02 09:38:15;;;;;;;14.33;8.93;;;16.00;36.80;;;;;;5116028;28;20686;-52
2023/01/02 09:40:47;;;;;;;14.70;8.90;;;16.00;36.80;;;;;;5116293;28;20405;-52
2023/01/02 09:43:15;;;;;;;12.38;8.93;;;16.00;36.70;;;;;;5116304;28;20175;-51
2023/01/02 09:45:43;;;;;;;13.25;8.60;;;16.00;36.60;;;;;;5115914;28;20175;-52
2023/01/02 09:48:16;;;;;;;11.23;8.40;;;16.00;36.70;;;;;;5115815;28;20219;-52
2023/01/02 09:50:45;;;;;;;8.63;7.57;;;16.00;36.70;;;;;;5116085;28;20287;-52
2023/01/02 09:53:12;;;;;;;11.18;6.88;;;16.00;36.60;;;;;;5115862;28;20178;-51
2023/01/02 09:56:09;;;;;;;10.25;7.85;;;16.00;36.70;;;;;;5115769;28;20179;-52
2023/01/02 09:58:47;;;;;;;13.23;8.32;;;16.00;36.50;;;;;;5115694;28;20227;-51
2023/01/02 10:01:31;;;;;;;11.50;7.88;;;16.00;36.70;;;;;;5116038;28;20194;-51
2023/01/02 10:04:15;;;;;;;11.05;7.20;;;16.00;36.60;;;;;;5115824;28;20166;-51
2023/01/02 10:06:49;;;;;;;10.25;8.20;;;16.10;36.80;;;;;;5115542;28;20184;-51
2023/01/02 10:09:46;;;;;;;9.70;7.10;;;16.10;36.70;;;;;;5115488;28;20266;-52
2023/01/02 10:12:28;;;;;;;8.35;7.32;;;16.10;36.60;;;;;;5111365;28;20564;-52
2023/01/02 10:15:09;;;;;;;11.60;7.45;;;16.10;36.40;;;;;;5115404;28;20175;-52
2023/01/02 10:17:41;;;;;;;8.98;7.25;;;16.10;36.50;;;;;;5115156;28;20218;-52
2023/01/02 10:20:13;;;;;;;9.63;7.90;;;16.10;36.60;;;;;;5115529;28;20178;-51
2023/01/02 10:22:54;;;;;;;10.98;7.50;;;16.10;36.60;;;;;;5115444;28;20167;-52
2023/01/02 10:25:40;;;;;;;7.88;6.88;;;16.10;36.60;;;;;;5115120;28;20166;-52
2023/01/02 10:28:23;;;;;;;11.18;7.45;;;16.10;36.60;;;;;;5115397;28;20277;-52
2023/01/02 10:31:03;;;;;;;11.85;8.13;;;16.20;36.70;;;;;;5115397;28;20183;-51
2023/01/02 10:33:50;;;;;;;11.63;9.05;;;16.30;36.70;;;;;;5113998;28;20186;-51
2023/01/02 10:36:27;;;;;;;11.32;8.50;;;16.40;36.60;;;;;;5114606;28;20191;-52
2023/01/02 10:39:02;;;;;;;12.88;9.45;;;16.40;36.30;;;;;;5115068;28;20178;-52
2023/01/02 10:41:30;;;;;;;10.77;8.52;;;16.40;36.20;;;;;;5115133;28;20159;-52
2023/01/02 10:44:11;;;;;;;12.48;9.32;;;16.40;36.00;;;;;;5114966;28;20201;-52
2023/01/02 10:46:40;;;;;;;11.05;8.55;;;16.50;36.00;;;;;;5114521;28;20685;-52
2023/01/02 10:49:08;;;;;;;11.48;7.80;;;16.50;36.00;;;;;;5114841;28;20252;-52
2023/01/02 10:51:37;;;;;;;8.15;7.22;;;16.50;35.60;;;;;;5114877;28;20186;-51
2023/01/02 10:54:07;;;;;;;9.00;6.85;;;16.50;35.90;;;;;;5114632;28;20183;-52
2023/01/02 10:56:38;;;;;;;11.23;8.13;;;16.50;35.90;;;;;;5114331;28;20731;-52
2023/01/02 10:59:19;;;;;;;11.70;8.77;;;16.60;35.90;;;;;;5114601;28;20201;-51
2023/01/02 11:01:56;;;;;;;10.80;8.68;;;16.60;35.70;;;;;;5114625;28;20163;-52
2023/01/02 11:04:28;;;;;;;7.85;7.05;;;16.60;35.70;;;;;;5114463;28;20247;-52
2023/01/02 11:07:00;;;;;;;9.02;7.28;;;16.60;35.60;;;;;;5114475;28;20179;-52
2023/01/02 11:09:32;;;;;;;8.73;6.60;;;16.60;35.50;;;;;;5114420;28;20642;-51
2023/01/02 11:12:08;;;;;;;10.57;7.55;;;16.50;35.50;;;;;;5114579;28;20174;-52
2023/01/02 11:14:35;;;;;;;11.73;6.80;;;16.60;35.60;;;;;;5114405;28;20550;-53
2023/01/02 11:17:20;;;;;;;9.20;7.80;;;16.50;35.70;;;;;;5114074;28;20234;-52
2023/01/02 11:19:55;;;;;;;10.98;8.05;;;16.60;35.70;;;;;;5114267;28;20172;-51
2023/01/02 11:22:35;;;;;;;10.70;7.82;;;16.50;35.90;;;;;;5128307;22;20257;-50
2023/01/02 11:25:06;;;;;;;8.93;7.82;;;16.50;35.70;;;;;;5113729;28;20174;-52
2023/01/02 11:27:55;;;;;;;10.25;8.70;;;16.50;35.90;;;;;;5114080;28;20206;-50
2023/01/02 11:30:29;;;;;;;9.07;8.13;;;16.50;36.00;;;;;;5114167;28;20703;-53
2023/01/02 11:33:20;;;;;;;9.10;6.55;;;16.40;35.90;;;;;;5114282;28;20190;-52
2023/01/02 11:35:46;;;;;;;10.48;7.43;;;16.40;35.70;;;;;;5113739;28;20229;-50
2023/01/02 11:38:14;;;;;;;9.50;6.00;;;16.40;35.90;;;;;;5113852;28;20203;-50
2023/01/02 11:40:55;;;;;;;9.25;7.75;;;16.40;35.90;;;;;;5113748;28;20176;-52
2023/01/02 11:43:58;;;;;;;11.93;7.45;;;16.40;36.00;;;;;;5113555;28;20282;-52
2023/01/02 11:46:34;;;;;;;13.35;8.45;;;16.40;36.10;;;;;;5100454;28;20183;-52
2023/01/02 11:49:16;;;;;;;12.45;7.28;;;16.40;36.30;;;;;;5113710;28;20181;-53
2023/01/02 11:51:41;;;;;;;8.10;6.97;;;16.40;36.30;;;;;;5113594;28;20171;-53
2023/01/02 11:54:22;;;;;;;11.70;7.90;;;16.40;36.10;;;;;;5113624;28;20186;-50
2023/01/02 11:56:49;;;;;;;10.57;7.15;;;16.30;36.20;;;;;;5113533;28;20201;-50
2023/01/02 11:59:46;;;;;;;11.02;7.30;;;16.30;36.30;;;;;;5113410;28;20186;-50
2023/01/02 12:02:55;;;;;;;12.35;8.05;;;16.40;36.20;;;;;;5110441;28;20226;-50
2023/01/02 12:06:04;;;;;;;11.05;7.35;;;16.40;36.00;;;;;;5112558;28;20221;-53
2023/01/02 12:08:30;;;;;;;8.77;7.07;;;16.50;36.00;;;;;;5061322;28;20187;-53
2023/01/02 12:11:39;;;;;;;12.07;8.40;;;16.60;36.00;;;;;;5113255;28;20217;-52
2023/01/02 12:14:46;;;;;;;9.98;7.57;;;16.80;35.70;;;;;;5113233;28;20595;-53
2023/01/02 12:17:54;;;;;;;8.70;7.30;;;17.10;35.20;;;;;;5030396;28;20206;-53
2023/01/02 12:20:40;;;;;;;14.63;7.47;;;17.30;34.80;;;;;;5030335;28;20227;-53
2023/01/02 12:23:42;;;;;;;8.43;7.25;;;17.50;34.60;;;;;;5030047;28;20842;-53
2023/01/02 12:26:18;;;;;;;10.57;7.53;;;17.90;34.40;;;;;;5030015;28;20173;-50
2023/01/02 12:29:10;;;;;;;9.77;7.50;;;17.90;34.40;;;;;;5030205;28;20181;-53
2023/01/02 12:32:07;;;;;;;12.80;7.78;;;18.20;33.60;;;;;;5030024;28;20169;-53
2023/01/02 12:34:39;;;;;;;8.13;6.68;;;18.50;33.10;;;;;;5026571;28;20191;-50
2023/01/02 12:37:15;;;;;;;11.10;9.00;;;18.70;32.50;;;;;;5030053;28;20213;-53
2023/01/02 12:40:00;;;;;;;9.82;6.85;;;18.80;32.20;;;;;;5030092;28;20189;-51
2023/01/02 12:42:42;;;;;;;11.40;7.90;;;19.20;32.10;;;;;;5029966;28;20603;-51
2023/01/02 12:45:43;;;;;;;9.73;7.00;;;19.40;31.50;;;;;;5029699;28;20169;-53
2023/01/02 12:48:44;;;;;;;12.82;7.55;;;19.50;31.70;;;;;;5078709;28;20512;-51
2023/01/02 12:51:29;;;;;;;9.52;7.32;;;19.80;31.00;;;;;;5112508;28;20596;-53
2023/01/02 12:54:13;;;;;;;10.75;6.57;;;20.10;30.20;;;;;;5112637;28;20191;-53
2023/01/02 12:57:02;;;;;;;7.07;6.25;;;20.10;30.00;;;;;;5111862;28;20604;-53
2023/01/02 12:59:49;;;;;;;10.63;6.65;;;19.90;30.10;;;;;;5112809;28;20174;-53
2023/01/02 13:02:29;;;;;;;8.68;6.45;;;19.40;30.50;;;;;;5112707;28;20550;-51
2023/01/02 13:04:59;;;;;;;10.40;7.70;;;18.90;31.20;;;;;;5112320;28;20184;-53